Philadelphia, Pennsylvania
Traffic Map
Current Weather Conditions
Philadelphia, Pennsylvania
Broken Clouds
Broken Clouds
22°
Feels Like: 22°
Wind Chill: 22° Ceiling: 8500
Heat Index: 22° Visibility: 10mi
Dew Point: 19° Wind: 7mph
Humidity: 84% Direction: 70° (ENE)
Pressure: 29.91in Gusts: 0mph
Raw Report DataKPHL 041118Z 07006KT 10SM FEW010 SCT065 BKN085 BKN130 22/19 A2991 RMK AO2 T02170189 $
Traffic Incident Summary
Active as of:
Severity:
Category:
InformationThere was an issue retrieving the traffic information for this location. Please try a different location or try again shortly.
Advertisements
Track Severe Weather on mobile